Nephi, UT

11:19 AM MST on February 13, 2016 (GMT -0700)
Ironrod | | Change Station
CLOSE
Current Station
Personal Weather Station
Location: Elk Ridge, UT
Elevation: 5420 ft
Nearby Weather Stations

Elev 5420 ft 40.01 °N, 111.68 °W | Updated 4 minutes ago

Mostly Cloudy
Mostly Cloudy
37.3 °F
Feels Like 37 °F
N
3.0
Wind Variable Wind from WNW
Gusts 4.0 mph

Today
High -- | Low -- °F
--% Chance of Precip.
Yesterday
High -- | Low -- °F
Precip. -- in
Pressure 30.34 in
Visibility 0.5 miles
Clouds Overcast 200 ft
Windchill 37 °F
Dew Point 24 °F
Humidity 59%
Rainfall 0.00 in
Snow Depth Not available.
7:22 AM 6:00 PM
Waxing Crescent, 33% visible
METAR KPVU 131747Z 00000KT 1/2SM FZFG OVC002 M04/M06 A3034
Pressure 30.34 in
Visibility 0.5 miles
Clouds Overcast 200 ft
Windchill 37 °F
Dew Point 24 °F
Humidity 59%
Rainfall 0.00 in
Snow Depth Not available.
7:22 AM 6:00 PM
Waxing Crescent, 33% visible
METAR KPVU 131747Z 00000KT 1/2SM FZFG OVC002 M04/M06 A3034

10-Day Weather Forecast

Almanac

Astronomy

Feb. 13, 2016 Rise Set
Actual Time
Civil Twilight
Nautical Twilight
Astronomical Twilight
Moon
Length of Visible Light
Length of Day
Tomorrow will be .
, % of the Moon is Illuminated

Today's Extremes

State Highs State Lows

Community

WunderPhotos

Upload Photos

1,892,632 photos uploaded!

WunderBlog® & News

Nearby

Air Quality

  Air Quality AQ Index Pollutant
Not available.

Snow Depth

Station Depth Elevation

Earthquake Activity

City Distance Mag. Time & Date
Minimum magnitude displayed is 2.5.

Coastal Water Temperatures

Place Temperature

Stations

Nearby Weather Stations

Station Location Temp. Windchill Dew Point Humidity Wind Precip. Elev Updated Type
                   

Watches & Warnings

There are currently no watches in effect.